Time;durP1;ratioP1;P1;durP2;ratioP2;P2;SDS_P1;SDS_P2;PMS_P1;PMS_P2;Temp;Humidity;BMP_temperature;BMP_pressure;BME280_temperature;BME280_humidity;BME280_pressure;Samples;Min_cycle;Max_cycle;Signal;HPM_P1;HPM_P2
2021/01/19 00:00:53;;;;;;;24.67;12.33;;;;;;;-6.07;80.41;96775.57;1751754;82;21634;-83
2021/01/19 00:03:20;;;;;;;36.30;16.23;;;;;;;-6.02;80.10;96784.43;1751958;81;21135;-83
2021/01/19 00:05:47;;;;;;;34.87;16.97;;;;;;;-6.03;79.96;96784.11;1751665;81;21151;-83
2021/01/19 00:08:14;;;;;;;30.50;15.30;;;;;;;-6.05;80.02;96776.23;1751710;81;21291;-83
2021/01/19 00:10:41;;;;;;;18.47;10.47;;;;;;;-6.06;80.31;96774.59;1751626;81;21184;-83
2021/01/19 00:13:08;;;;;;;22.67;10.90;;;;;;;-6.00;81.14;96762.31;1751658;82;21164;-83
2021/01/19 00:15:35;;;;;;;25.73;11.53;;;;;;;-5.93;81.37;96761.94;1751760;82;21139;-83
2021/01/19 00:18:02;;;;;;;29.93;12.60;;;;;;;-5.89;81.74;96747.70;1751422;81;21310;-83
2021/01/19 00:20:29;;;;;;;23.13;10.17;;;;;;;-5.93;81.92;96752.09;1751657;82;21310;-83
2021/01/19 00:22:57;;;;;;;18.33;9.67;;;;;;;-5.97;82.37;96750.36;1751941;82;21298;-83
2021/01/19 00:25:24;;;;;;;22.87;11.87;;;;;;;-5.99;82.75;96747.15;1751909;81;21294;-83
2021/01/19 00:27:51;;;;;;;25.43;13.67;;;;;;;-6.02;82.95;96750.08;1751862;81;21285;-83
2021/01/19 00:30:18;;;;;;;23.67;12.87;;;;;;;-6.02;83.27;96755.23;1751597;81;21146;-83
2021/01/19 00:32:45;;;;;;;19.67;9.80;;;;;;;-6.05;83.53;96749.13;1751754;81;21128;-83
2021/01/19 00:35:12;;;;;;;16.73;7.80;;;;;;;-6.04;83.85;96743.80;1751640;82;21123;-83
2021/01/19 00:37:40;;;;;;;20.30;9.43;;;;;;;-6.02;84.08;96730.23;1751916;81;21626;-83
2021/01/19 00:40:08;;;;;;;22.83;12.87;;;;;;;-5.98;84.11;96738.42;1751642;81;21286;-83
2021/01/19 00:42:35;;;;;;;23.67;11.63;;;;;;;-5.96;84.15;96736.97;1751646;82;21160;-83
2021/01/19 00:45:04;;;;;;;14.53;7.70;;;;;;;-5.95;84.34;96747.59;1751546;82;21139;-83
2021/01/19 00:47:31;;;;;;;22.53;13.07;;;;;;;-5.95;84.55;96739.37;1751648;82;21285;-83
2021/01/19 00:49:58;;;;;;;22.33;11.43;;;;;;;-5.92;84.60;96738.22;1751628;81;21640;-83
2021/01/19 00:52:25;;;;;;;19.90;9.13;;;;;;;-5.89;84.56;96744.32;1751634;82;21282;-83
2021/01/19 00:54:52;;;;;;;16.73;9.30;;;;;;;-5.86;84.75;96739.61;1751592;82;21161;-83
2021/01/19 00:57:19;;;;;;;22.27;11.37;;;;;;;-5.78;84.73;96740.83;1751604;82;21184;-83
2021/01/19 00:59:46;;;;;;;15.10;8.13;;;;;;;-5.70;84.75;96738.69;1751612;81;21125;-83
2021/01/19 01:02:16;;;;;;;22.50;10.80;;;;;;;-5.62;84.72;96739.92;1751703;82;21139;-83
2021/01/19 01:04:42;;;;;;;29.37;10.97;;;;;;;-5.53;84.60;96721.28;1751670;81;21136;-83
2021/01/19 01:07:09;;;;;;;21.87;10.97;;;;;;;-5.48;84.66;96728.84;1751585;81;21171;-83
2021/01/19 01:09:37;;;;;;;20.03;10.10;;;;;;;-5.44;84.62;96719.75;1751607;81;21281;-83
2021/01/19 01:12:06;;;;;;;20.23;10.33;;;;;;;-5.39;84.68;96717.44;1756542;82;21515;-83
2021/01/19 01:14:34;;;;;;;22.90;10.87;;;;;;;-5.37;84.77;96715.47;1757229;81;21166;-83
2021/01/19 01:17:02;;;;;;;18.33;8.27;;;;;;;-5.35;84.88;96715.30;1756977;81;21139;-83
2021/01/19 01:19:29;;;;;;;17.10;6.73;;;;;;;-5.34;85.00;96718.22;1757270;81;21544;-83
2021/01/19 01:21:56;;;;;;;18.70;9.30;;;;;;;-5.31;85.13;96713.98;1757374;82;21135;-83
2021/01/19 01:24:23;;;;;;;20.67;9.30;;;;;;;-5.28;85.17;96721.38;1729921;82;21143;-83
2021/01/19 01:26:55;;;;;;;17.70;7.67;;;;;;;-5.27;85.19;96707.48;1757189;81;21160;-83
2021/01/19 01:29:22;;;;;;;12.57;7.43;;;;;;;-5.25;85.12;96703.42;1757196;81;21148;-83
2021/01/19 01:31:49;;;;;;;21.10;10.17;;;;;;;-5.25;85.09;96696.97;1757290;82;21148;-83
2021/01/19 01:34:16;;;;;;;20.73;9.60;;;;;;;-5.23;85.06;96693.71;1757279;81;21491;-83
2021/01/19 01:36:43;;;;;;;19.97;8.80;;;;;;;-5.21;85.10;96685.28;1757274;81;21143;-83
2021/01/19 01:39:10;;;;;;;16.67;9.20;;;;;;;-5.17;85.13;96677.52;1757185;81;21174;-83
2021/01/19 01:41:38;;;;;;;18.77;9.70;;;;;;;-5.13;85.27;96667.12;1757374;82;21630;-83
2021/01/19 01:44:05;;;;;;;16.13;7.70;;;;;;;-5.10;85.52;96671.93;1757197;82;21100;-83
2021/01/19 01:46:38;;;;;;;17.23;8.87;;;;;;;-5.11;85.69;96670.33;1757200;82;21159;-83
2021/01/19 01:49:06;;;;;;;18.27;8.77;;;;;;;-5.11;85.72;96673.72;1757283;81;21492;-83
2021/01/19 01:51:34;;;;;;;9.93;5.87;;;;;;;-5.11;85.85;96665.16;1757479;82;21146;-83
2021/01/19 01:54:02;;;;;;;17.62;8.73;;;;;;;-5.13;85.88;96655.00;1757460;82;21155;-83
2021/01/19 01:56:29;;;;;;;14.57;7.70;;;;;;;-5.15;85.92;96655.67;1757178;81;21178;-83
2021/01/19 01:58:57;;;;;;;18.10;8.90;;;;;;;-5.16;85.95;96648.11;1757341;81;21323;-83
2021/01/19 02:01:24;;;;;;;16.63;8.30;;;;;;;-5.15;86.03;96644.54;1757260;82;21516;-83
2021/01/19 02:03:54;;;;;;;20.52;11.15;;;;;;;-5.09;86.05;96656.24;1757259;81;21515;-83
2021/01/19 02:06:22;;;;;;;19.40;9.63;;;;;;;-5.05;86.07;96648.95;1756843;82;21116;-83
2021/01/19 02:09:09;;;;;;;19.67;8.60;;;;;;;-5.01;86.08;96648.09;1757158;81;21193;-83
2021/01/19 02:12:04;;;;;;;13.40;7.90;;;;;;;-4.96;86.08;96643.98;1757285;82;21163;-83
2021/01/19 02:14:39;;;;;;;11.83;7.43;;;;;;;-4.96;85.98;96649.16;1757209;82;21124;-83
2021/01/19 02:17:57;;;;;;;14.73;6.97;;;;;;;-4.93;86.09;96646.69;1757062;82;21132;-83
2021/01/19 02:21:19;;;;;;;17.37;9.70;;;;;;;-4.92;86.15;96647.03;1756225;82;21189;-83
2021/01/19 02:23:56;;;;;;;18.50;10.15;;;;;;;-4.91;86.21;96654.61;1757196;82;21123;-83
2021/01/19 02:26:49;;;;;;;27.73;13.00;;;;;;;-4.91;86.06;96659.78;1757177;81;21144;-83
2021/01/19 02:29:52;;;;;;;24.07;11.13;;;;;;;-4.96;85.75;96649.16;1749517;81;21173;-83
2021/01/19 02:32:39;;;;;;;18.40;9.13;;;;;;;-5.03;85.68;96654.74;1757157;82;21172;-83
2021/01/19 02:35:14;;;;;;;22.82;11.03;;;;;;;-5.09;85.55;96652.86;1757288;82;21475;-83
2021/01/19 02:38:11;;;;;;;25.23;13.10;;;;;;;-5.08;85.48;96648.80;1757210;81;21124;-83
2021/01/19 02:40:39;;;;;;;23.80;11.43;;;;;;;-5.10;85.40;96649.96;1757198;82;21143;-83
2021/01/19 02:43:23;;;;;;;17.45;8.40;;;;;;;-5.16;85.50;96653.27;1757174;82;21155;-82
2021/01/19 02:45:49;;;;;;;19.35;10.03;;;;;;;-5.17;85.79;96642.63;1757104;82;21160;-83
2021/01/19 02:48:16;;;;;;;21.93;10.00;;;;;;;-5.18;85.99;96637.15;1757092;81;21123;-83
2021/01/19 02:50:44;;;;;;;19.55;9.38;;;;;;;-5.15;86.34;96627.74;1757219;82;21503;-83
2021/01/19 02:53:13;;;;;;;15.58;8.08;;;;;;;-5.10;86.70;96628.80;1757345;82;21139;-83
2021/01/19 02:55:43;;;;;;;14.15;7.90;;;;;;;-4.99;86.95;96634.50;1757163;82;21178;-83
2021/01/19 02:58:34;;;;;;;;;;;;;;;-4.92;87.03;96637.98;1759742;81;21124;-83
2021/01/19 03:01:19;;;;;;;15.88;9.08;;;;;;;-4.85;87.24;96620.26;1774586;81;20454;-84
2021/01/19 03:03:49;;;;;;;19.63;9.40;;;;;;;-4.80;87.17;96623.09;1771989;81;21261;-83
2021/01/19 03:06:19;;;;;;;13.03;7.53;;;;;;;-4.72;87.34;96621.40;1776482;81;21126;-83
2021/01/19 03:08:49;;;;;;;14.75;7.87;;;;;;;-4.68;87.35;96613.09;1776419;81;21142;-83
2021/01/19 03:11:19;;;;;;;13.45;5.92;;;;;;;-4.65;87.46;96601.56;1776252;80;21161;-83
2021/01/19 03:13:47;;;;;;;;;;;;;;;-4.64;87.53;96611.76;1778678;81;21468;-83
2021/01/19 03:16:18;;;;;;;14.15;6.35;;;;;;;-4.63;87.54;96615.14;1776153;81;20144;-83
2021/01/19 03:18:48;;;;;;;21.55;10.75;;;;;;;-4.61;87.77;96608.80;1751466;81;21156;-83
2021/01/19 03:21:15;;;;;;;15.83;5.75;;;;;;;-4.55;87.68;96611.94;1751949;81;21473;-83
2021/01/19 03:23:42;;;;;;;14.25;5.95;;;;;;;-4.44;88.13;96605.98;1751756;82;21678;-83
2021/01/19 03:26:10;;;;;;;14.78;6.20;;;;;;;-4.35;88.16;96591.95;1751764;81;21658;-83
2021/01/19 03:28:37;;;;;;;9.95;6.90;;;;;;;-4.27;88.22;96595.20;1751672;81;21298;-83
2021/01/19 03:31:05;;;;;;;7.10;4.75;;;;;;;-4.22;88.29;96580.42;1757419;81;21099;-83
2021/01/19 03:33:33;;;;;;;17.45;9.03;;;;;;;-4.16;88.23;96602.96;1775919;81;21507;-83
2021/01/19 03:36:00;;;;;;;9.83;6.08;;;;;;;-4.11;88.10;96600.61;1776012;81;21502;-83
2021/01/19 03:38:27;;;;;;;21.52;10.32;;;;;;;-4.06;88.09;96600.06;1775919;81;21163;-83
2021/01/19 03:40:54;;;;;;;16.73;8.73;;;;;;;-4.03;87.94;96593.22;1775996;81;21138;-83
2021/01/19 03:43:21;;;;;;;13.75;6.50;;;;;;;-3.99;88.14;96593.94;1775926;81;21095;-83
2021/01/19 03:45:48;;;;;;;11.53;5.72;;;;;;;-3.94;88.38;96589.02;1775904;81;21107;-83
2021/01/19 03:48:15;;;;;;;13.45;7.58;;;;;;;-3.89;88.41;96593.13;1756436;81;21278;-83
2021/01/19 03:50:42;;;;;;;16.02;7.22;;;;;;;-3.84;88.37;96601.63;1751671;82;21135;-83
2021/01/19 03:53:09;;;;;;;11.88;6.75;;;;;;;-3.84;88.29;96597.73;1751954;81;21313;-83
2021/01/19 03:55:37;;;;;;;14.98;7.12;;;;;;;-3.87;88.06;96588.26;1751688;82;21163;-83
2021/01/19 03:58:04;;;;;;;18.00;8.65;;;;;;;-3.91;87.96;96587.84;1751832;81;21314;-83
2021/01/19 04:00:31;;;;;;;10.35;5.95;;;;;;;-3.94;87.96;96591.61;1751688;81;21293;-83
2021/01/19 04:02:59;;;;;;;22.20;10.65;;;;;;;-3.97;87.79;96593.25;1751692;81;21263;-83
2021/01/19 04:05:26;;;;;;;14.65;8.28;;;;;;;-4.00;87.71;96596.23;1751722;81;21540;-83
2021/01/19 04:07:54;;;;;;;14.55;7.12;;;;;;;-4.01;87.66;96589.94;1751680;81;21282;-83
2021/01/19 04:10:21;;;;;;;9.98;6.15;;;;;;;-4.02;87.64;96592.23;1751820;81;21648;-83
2021/01/19 04:12:48;;;;;;;19.45;10.23;;;;;;;-4.03;87.66;96588.84;1751582;82;21136;-83
2021/01/19 04:15:15;;;;;;;16.90;8.93;;;;;;;-4.04;87.67;96595.50;1751664;82;21293;-83
2021/01/19 04:17:43;;;;;;;15.72;8.08;;;;;;;-4.01;87.75;96597.22;1751466;81;21294;-83
2021/01/19 04:20:11;;;;;;;10.85;5.62;;;;;;;-3.95;87.73;96593.86;1751800;81;21626;-83
2021/01/19 04:22:38;;;;;;;11.78;6.30;;;;;;;-3.96;87.70;96600.03;1751679;81;21139;-83
2021/01/19 04:25:07;;;;;;;15.05;8.15;;;;;;;-3.96;87.55;96590.17;1751639;82;21685;-83
2021/01/19 04:27:35;;;;;;;11.50;7.80;;;;;;;-3.95;87.57;96587.89;1752079;81;21194;-83
2021/01/19 04:30:08;;;;;;;15.08;7.72;;;;;;;-3.92;87.51;96595.30;1751920;81;21491;-83
2021/01/19 04:32:37;;;;;;;18.00;8.90;;;;;;;-3.89;87.64;96600.10;1751679;81;21148;-83
2021/01/19 04:35:06;;;;;;;9.63;4.87;;;;;;;-3.88;87.53;96588.75;1751738;82;21642;-83
2021/01/19 04:37:33;;;;;;;12.33;5.30;;;;;;;-3.88;87.78;96588.75;1751905;82;21135;-83
2021/01/19 04:40:04;;;;;;;11.45;6.67;;;;;;;-3.88;88.03;96588.75;1751638;81;21417;-83
2021/01/19 04:42:33;;;;;;;15.63;8.45;;;;;;;-3.87;88.04;96589.06;1751301;82;21309;-83
2021/01/19 04:45:07;;;;;;;11.43;6.05;;;;;;;-3.82;88.32;96597.05;1751339;82;21144;-83
2021/01/19 04:47:36;;;;;;;9.05;5.35;;;;;;;-3.84;88.40;96599.03;1751555;82;21132;-83
2021/01/19 04:50:13;;;;;;;12.15;5.28;;;;;;;-3.85;88.49;96591.45;1751700;81;21289;-83
2021/01/19 04:52:44;;;;;;;10.98;5.50;;;;;;;-3.85;88.65;96586.28;1751658;82;21262;-83
2021/01/19 04:55:22;;;;;;;12.98;6.42;;;;;;;-3.81;89.00;96601.24;1751562;82;21527;-83
2021/01/19 04:57:59;;;;;;;9.53;5.80;;;;;;;-3.79;89.01;96590.23;1749255;82;21472;-83
2021/01/19 05:00:34;;;;;;;6.83;4.50;;;;;;;-3.76;89.16;96595.02;1751647;82;21132;-83
2021/01/19 05:03:28;;;;;;;10.98;6.50;;;;;;;-3.71;89.21;96591.86;1751361;82;21270;-83
2021/01/19 05:06:13;;;;;;;14.15;6.25;;;;;;;-3.68;89.42;96600.54;1750196;82;21171;-83
2021/01/19 05:08:46;;;;;;;14.78;6.85;;;;;;;-3.62;89.47;96607.08;1751801;81;21627;-83
2021/01/19 05:11:26;;;;;;;12.90;5.80;;;;;;;-3.59;89.42;96604.11;1751313;82;21504;-83
2021/01/19 05:14:01;;;;;;;7.62;4.55;;;;;;;-3.53;89.46;96596.55;1751851;82;21488;-83
2021/01/19 05:16:35;;;;;;;10.35;5.25;;;;;;;-3.50;89.28;96604.77;1751451;82;21171;-83
2021/01/19 05:19:05;;;;;;;10.48;5.97;;;;;;;-3.51;89.25;96604.96;1751587;81;21274;-83
2021/01/19 05:21:40;;;;;;;15.40;8.40;;;;;;;-3.52;89.13;96592.47;1752174;82;21093;-83
2021/01/19 05:24:08;;;;;;;11.63;6.53;;;;;;;-3.49;89.03;96596.50;1751916;82;21144;-83
2021/01/19 05:26:35;;;;;;;10.72;4.95;;;;;;;-3.47;88.93;96603.58;1751767;82;21658;-83
2021/01/19 05:29:04;;;;;;;12.20;5.00;;;;;;;-3.44;88.97;96591.05;1751572;81;21469;-83
2021/01/19 05:31:32;;;;;;;10.50;5.92;;;;;;;-3.38;88.93;96593.36;1751650;82;21531;-83
2021/01/19 05:34:04;;;;;;;13.08;6.60;;;;;;;-3.31;88.86;96601.98;1751599;82;21112;-83
2021/01/19 05:36:42;;;;;;;11.20;6.37;;;;;;;-3.28;88.77;96599.00;1751698;81;21492;-83
2021/01/19 05:39:19;;;;;;;9.95;5.70;;;;;;;-3.25;88.74;96610.28;1751682;81;21666;-83
2021/01/19 05:41:52;;;;;;;11.93;7.03;;;;;;;-3.23;88.67;96605.73;1751598;82;21105;-83
2021/01/19 05:44:30;;;;;;;14.23;6.28;;;;;;;-3.20;88.67;96588.98;1751460;82;21164;-83
2021/01/19 05:47:04;;;;;;;12.53;5.78;;;;;;;-3.18;88.59;96599.96;1751375;82;21282;-83
2021/01/19 05:49:43;;;;;;;10.25;6.53;;;;;;;-3.17;88.47;96604.95;1751596;81;21504;-83
2021/01/19 05:52:14;;;;;;;14.00;6.90;;;;;;;-3.16;88.44;96596.67;1751721;82;21140;-83
2021/01/19 05:54:45;;;;;;;12.78;6.47;;;;;;;-3.15;88.36;96613.33;1751744;82;21101;-83
2021/01/19 05:57:22;;;;;;;11.63;5.08;;;;;;;-3.17;88.30;96601.56;1751604;82;21258;-83
2021/01/19 05:59:58;;;;;;;10.20;5.95;;;;;;;-3.18;88.42;96602.05;1751574;81;21298;-83
2021/01/19 06:02:44;;;;;;;13.38;7.53;;;;;;;-3.17;88.45;96597.67;1751874;82;21140;-83
2021/01/19 06:05:15;;;;;;;15.28;6.40;;;;;;;-3.18;88.55;96605.95;1751751;82;21266;-83
2021/01/19 06:07:48;;;;;;;10.23;4.97;;;;;;;-3.18;88.54;96594.28;1751757;82;21096;-83
2021/01/19 06:10:20;;;;;;;11.65;6.50;;;;;;;-3.16;88.56;96587.10;1751701;81;21511;-83
2021/01/19 06:12:47;;;;;;;7.10;4.70;;;;;;;-3.15;88.51;96594.38;1751769;82;21617;-83
2021/01/19 06:15:14;;;;;;;7.85;4.50;;;;;;;-3.17;88.51;96598.47;1751613;82;21702;-83
2021/01/19 06:17:41;;;;;;;12.55;5.35;;;;;;;-3.14;88.53;96603.77;1751409;82;21148;-83
2021/01/19 06:20:11;;;;;;;16.70;7.65;;;;;;;-3.14;88.48;96600.67;1751702;81;21136;-83
2021/01/19 06:22:39;;;;;;;12.53;6.87;;;;;;;-3.11;88.45;96601.58;1751583;81;21657;-83
2021/01/19 06:25:12;;;;;;;15.23;8.53;;;;;;;-3.08;88.41;96603.81;1751836;82;21143;-83
2021/01/19 06:27:41;;;;;;;11.08;5.50;;;;;;;-3.06;88.40;96597.93;1750904;82;21689;-83
2021/01/19 06:30:14;;;;;;;14.05;7.22;;;;;;;-3.05;88.46;96603.42;1751555;81;21270;-83
2021/01/19 06:32:50;;;;;;;10.13;5.28;;;;;;;-3.03;88.46;96602.73;1751680;81;21602;-83
2021/01/19 06:35:22;;;;;;;15.90;8.33;;;;;;;-3.03;88.41;96611.80;1751635;82;21141;-83
2021/01/19 06:37:55;;;;;;;19.07;7.25;;;;;;;-3.00;88.35;96611.41;1751731;82;21314;-83
2021/01/19 06:40:26;;;;;;;16.40;9.23;;;;;;;-2.98;88.42;96608.63;1751500;81;21136;-83
2021/01/19 06:43:00;;;;;;;14.93;7.67;;;;;;;-2.96;88.31;96605.33;1751596;82;21132;-83
2021/01/19 06:45:27;;;;;;;10.82;6.58;;;;;;;-2.94;88.34;96599.98;1751835;82;21278;-83
2021/01/19 06:47:58;;;;;;;11.12;7.40;;;;;;;-2.94;88.37;96609.86;1751943;82;21198;-83
2021/01/19 06:50:28;;;;;;;18.07;8.68;;;;;;;-2.94;88.34;96609.86;1751948;82;21270;-83
2021/01/19 06:53:30;;;;;;;12.40;4.72;;;;;;;-2.91;88.33;96611.27;1751835;81;21254;-83
2021/01/19 06:56:15;;;;;;;11.12;5.20;;;;;;;-2.91;88.64;96610.77;1751840;82;21104;-83
2021/01/19 06:58:56;;;;;;;14.30;7.35;;;;;;;-2.92;88.72;96610.95;1751644;81;21290;-83
2021/01/19 07:01:28;;;;;;;11.53;7.53;;;;;;;-2.94;88.93;96609.06;1751678;82;21262;-83
2021/01/19 07:04:24;;;;;;;10.90;5.70;;;;;;;-2.94;89.22;96610.36;1751956;81;21168;-83
2021/01/19 07:07:19;;;;;;;11.73;6.95;;;;;;;-2.92;89.27;96607.87;1751824;82;21275;-83
2021/01/19 07:10:28;;;;;;;9.38;5.08;;;;;;;-2.91;89.37;96617.25;1751653;81;21301;-83
2021/01/19 07:13:03;;;;;;;10.15;6.28;;;;;;;-2.88;89.33;96627.73;1753224;82;21230;-83
2021/01/19 07:15:58;;;;;;;16.85;8.73;;;;;;;-2.83;89.33;96606.69;1757586;82;21290;-83
2021/01/19 07:19:11;;;;;;;10.75;6.92;;;;;;;-2.83;89.19;96621.45;1757009;81;21670;-83
2021/01/19 07:22:09;;;;;;;15.43;8.03;;;;;;;-2.79;89.20;96617.50;1757446;81;21254;-83
2021/01/19 07:24:42;;;;;;;14.78;7.37;;;;;;;-2.77;89.09;96621.50;1757258;82;21137;-83
2021/01/19 07:27:13;;;;;;;12.07;6.78;;;;;;;-2.72;89.02;96617.81;1757202;82;21178;-83
2021/01/19 07:29:41;;;;;;;16.80;8.63;;;;;;;-2.69;88.95;96624.40;1757318;81;21148;-83
2021/01/19 07:32:13;;;;;;;13.20;7.70;;;;;;;-2.69;88.87;96617.42;1757314;82;21818;-83
2021/01/19 07:34:42;;;;;;;12.65;7.40;;;;;;;-2.70;88.94;96624.10;1757337;82;21127;-83
2021/01/19 07:37:09;;;;;;;14.53;7.30;;;;;;;-2.69;89.03;96619.21;1757247;81;21499;-83
2021/01/19 07:39:37;;;;;;;14.38;7.17;;;;;;;-2.66;89.12;96614.95;1757370;81;21285;-83
2021/01/19 07:42:17;;;;;;;13.30;8.18;;;;;;;-2.63;89.17;96605.97;1757211;82;21131;-83
2021/01/19 07:45:06;;;;;;;13.13;7.70;;;;;;;-2.61;89.09;96625.54;1757397;81;21147;-83
2021/01/19 07:47:40;;;;;;;13.83;8.13;;;;;;;-2.57;89.00;96616.86;1756986;82;21175;-83
2021/01/19 07:50:15;;;;;;;15.95;8.33;;;;;;;-2.53;88.91;96625.37;1757373;81;21678;-83
2021/01/19 07:52:46;;;;;;;10.58;6.20;;;;;;;-2.46;88.84;96622.79;1757247;81;21185;-83
2021/01/19 07:55:21;;;;;;;11.83;7.22;;;;;;;-2.43;88.73;96628.88;1757264;81;21458;-83
2021/01/19 07:57:52;;;;;;;10.50;6.40;;;;;;;-2.45;88.62;96626.48;1757327;82;21255;-83
2021/01/19 08:00:23;;;;;;;10.82;6.15;;;;;;;-2.49;88.68;96623.19;1757480;81;21519;-83
2021/01/19 08:03:07;;;;;;;9.48;6.58;;;;;;;-2.53;88.97;96624.58;1757603;82;21254;-83
2021/01/19 08:05:34;;;;;;;13.35;8.10;;;;;;;-2.58;89.09;96625.64;1757461;82;21321;-83
2021/01/19 08:08:14;;;;;;;12.05;6.92;;;;;;;-2.60;89.28;96619.85;1757274;81;21136;-83
2021/01/19 08:10:41;;;;;;;15.80;9.08;;;;;;;-2.60;89.38;96618.55;1757481;82;21128;-83
2021/01/19 08:13:19;;;;;;;15.23;8.33;;;;;;;-2.58;89.36;96617.36;1754241;82;21535;-83
2021/01/19 08:16:03;;;;;;;14.55;7.70;;;;;;;-2.55;89.38;96617.46;1751626;82;21287;-82
2021/01/19 08:18:43;;;;;;;16.52;8.63;;;;;;;-2.53;89.44;96618.89;1750751;81;21653;-83
2021/01/19 08:21:12;;;;;;;17.37;8.73;;;;;;;-2.51;89.46;96614.30;1751771;81;21124;-83
2021/01/19 08:23:40;;;;;;;21.35;11.68;;;;;;;-2.48;89.60;96612.61;1751858;82;21178;-83
2021/01/19 08:26:10;;;;;;;39.45;17.98;;;;;;;-2.50;89.58;96624.98;1751574;82;21305;-83
2021/01/19 08:28:38;;;;;;;16.17;8.70;;;;;;;-2.47;89.59;96621.19;1751561;81;21654;-83
2021/01/19 08:31:16;;;;;;;16.77;8.48;;;;;;;-2.41;89.60;96617.30;1751595;81;21160;-83
2021/01/19 08:33:49;;;;;;;13.13;7.37;;;;;;;-2.35;89.53;96617.03;1751646;82;21646;-83
2021/01/19 08:36:15;;;;;;;12.10;7.87;;;;;;;-2.30;89.41;96617.73;1751735;81;21484;-83
2021/01/19 08:38:49;;;;;;;15.00;9.10;;;;;;;-2.29;89.30;96610.23;1751746;81;21193;-83
2021/01/19 08:41:20;;;;;;;23.07;10.63;;;;;;;-2.26;89.26;96610.64;1751909;81;21135;-83
2021/01/19 08:44:00;;;;;;;12.68;7.75;;;;;;;-2.21;89.18;96606.17;1751853;82;21298;-83
2021/01/19 08:46:31;;;;;;;15.05;7.62;;;;;;;-2.21;89.08;96612.66;1751648;82;21623;-83
2021/01/19 08:49:05;;;;;;;14.55;6.15;;;;;;;-2.22;89.03;96609.77;1751600;81;21165;-83
2021/01/19 08:51:33;;;;;;;14.10;7.45;;;;;;;-2.22;89.04;96598.88;1751607;82;21491;-83
2021/01/19 08:54:00;;;;;;;18.50;9.88;;;;;;;-2.24;89.07;96600.88;1751791;81;21282;-83
2021/01/19 08:56:29;;;;;;;19.73;9.18;;;;;;;-2.21;89.06;96612.66;1751689;82;21650;-83
2021/01/19 08:58:56;;;;;;;13.28;7.42;;;;;;;-2.18;89.06;96608.38;1751633;81;21124;-83
2021/01/19 09:01:23;;;;;;;18.77;10.00;;;;;;;-2.17;89.05;96597.78;1751642;81;21139;-83
2021/01/19 09:03:59;;;;;;;14.07;7.28;;;;;;;-2.14;89.02;96619.45;1751595;81;21152;-83
2021/01/19 09:06:26;;;;;;;21.07;10.03;;;;;;;-2.08;89.02;96603.59;1751562;81;21136;-82
2021/01/19 09:08:59;;;;;;;17.82;9.83;;;;;;;-2.02;88.96;96609.78;1751650;81;21274;-82
2021/01/19 09:11:31;;;;;;;15.38;8.85;;;;;;;-1.97;89.11;96606.08;1751615;82;21642;-83
2021/01/19 09:14:08;;;;;;;12.50;6.83;;;;;;;-1.92;89.04;96620.09;1751612;81;21289;-83
2021/01/19 09:16:39;;;;;;;7.78;5.40;;;;;;;-1.87;88.83;96619.48;1751403;82;21124;-83
2021/01/19 09:19:10;;;;;;;16.50;8.35;;;;;;;-1.84;88.66;96616.48;1751574;81;21290;-83
2021/01/19 09:21:38;;;;;;;;;;;;;;;-1.81;88.49;96609.11;1754248;82;21595;-83
2021/01/19 09:24:21;;;;;;;14.50;6.85;;;;;;;-1.72;88.26;96613.58;1751645;82;20122;-83
2021/01/19 09:27:00;;;;;;;10.90;5.85;;;;;;;-1.65;88.03;96609.70;1751634;82;21148;-83
2021/01/19 09:29:33;;;;;;;13.38;7.65;;;;;;;-1.61;87.65;96600.49;1751537;81;21278;-83
2021/01/19 09:32:03;;;;;;;12.03;7.15;;;;;;;-1.60;87.49;96616.38;1751571;82;21136;-82
2021/01/19 09:34:31;;;;;;;13.85;8.00;;;;;;;-1.54;87.48;96611.70;1751698;81;21147;-83
2021/01/19 09:36:58;;;;;;;11.45;6.60;;;;;;;-1.46;87.45;96608.07;1751618;82;21297;-83
2021/01/19 09:39:31;;;;;;;15.30;7.85;;;;;;;-1.36;87.30;96598.06;1751591;81;21623;-83
2021/01/19 09:42:03;;;;;;;14.13;7.55;;;;;;;-1.32;87.14;96618.75;1751655;82;21613;-83
2021/01/19 09:44:32;;;;;;;11.70;5.75;;;;;;;-1.29;87.05;96613.94;1751583;81;21115;-83
2021/01/19 09:47:08;;;;;;;8.43;5.97;;;;;;;-1.21;86.97;96601.23;1751437;81;21168;-83
2021/01/19 09:49:37;;;;;;;14.95;8.88;;;;;;;-1.18;86.75;96602.62;1751541;81;21120;-83
2021/01/19 09:52:10;;;;;;;16.15;8.70;;;;;;;-1.14;86.86;96598.59;1751884;81;21627;-82
2021/01/19 09:54:38;;;;;;;10.30;6.67;;;;;;;-1.04;86.77;96606.78;1751561;82;21274;-83
2021/01/19 09:57:07;;;;;;;16.60;9.05;;;;;;;-0.95;86.69;96599.05;1751818;82;21147;-83
2021/01/19 09:59:38;;;;;;;15.43;8.25;;;;;;;-0.86;86.57;96597.80;1751926;81;21286;-83
2021/01/19 10:02:05;;;;;;;;;;;;;;;-0.74;86.47;96588.85;1754178;82;21125;-82
2021/01/19 10:04:32;;;;;;;11.75;6.12;;;;;;;-0.82;85.97;96593.81;1751731;81;20126;-83
2021/01/19 10:07:08;;;;;;;7.83;5.37;;;;;;;-0.83;86.04;96592.72;1751475;82;21535;-82
2021/01/19 10:09:37;;;;;;;17.23;10.05;;;;;;;-0.88;86.10;96588.11;1751492;81;21148;-82
2021/01/19 10:12:08;;;;;;;13.35;7.40;;;;;;;-0.83;86.47;96592.21;1751636;81;21528;-82
2021/01/19 10:14:42;;;;;;;17.85;9.85;;;;;;;-0.73;86.53;96582.14;1756692;82;21151;-83
2021/01/19 10:17:10;;;;;;;20.10;11.30;;;;;;;-0.68;86.43;96577.13;1757176;81;21128;-82
2021/01/19 10:19:38;;;;;;;12.15;7.58;;;;;;;-0.61;86.34;96568.77;1757276;81;21158;-83
2021/01/19 10:22:10;;;;;;;17.35;10.70;;;;;;;-0.55;86.07;96571.56;1757146;81;21162;-82
2021/01/19 10:24:49;;;;;;;21.60;12.50;;;;;;;-0.49;85.92;96566.81;1757151;82;21155;-83
2021/01/19 10:27:21;;;;;;;22.70;13.65;;;;;;;-0.44;85.78;96568.27;1757074;82;21128;-83
2021/01/19 10:29:51;;;;;;;23.02;14.55;;;;;;;-0.47;85.48;96555.67;1757176;81;21209;-83
2021/01/19 10:32:18;;;;;;;19.03;10.03;;;;;;;-0.53;85.53;96563.83;1757373;82;21482;-83
2021/01/19 10:34:51;;;;;;;26.33;17.52;;;;;;;-0.51;85.67;96565.72;1757180;82;21862;-83
2021/01/19 10:37:19;;;;;;;26.02;15.08;;;;;;;-0.43;85.76;96565.95;1757411;82;21281;-83
2021/01/19 10:39:58;;;;;;;25.05;14.55;;;;;;;-0.46;85.67;96555.46;1757190;81;21124;-83
2021/01/19 10:42:30;;;;;;;24.50;15.70;;;;;;;-0.46;85.67;96555.46;1757239;81;21170;-83
2021/01/19 10:45:05;;;;;;;23.90;14.13;;;;;;;-0.42;85.78;96550.66;1757231;82;21131;-83
2021/01/19 10:47:43;;;;;;;17.75;10.05;;;;;;;-0.37;85.72;96554.21;1756876;81;21155;-83
2021/01/19 10:50:24;;;;;;;14.93;10.10;;;;;;;-0.43;85.67;96526.39;1757055;81;21575;-83
2021/01/19 10:53:03;;;;;;;21.97;12.15;;;;;;;-0.29;85.68;96545.33;1757158;82;21139;-83
2021/01/19 10:55:31;;;;;;;15.38;8.28;;;;;;;-0.15;85.27;96527.30;1757321;82;21135;-83
2021/01/19 10:58:02;;;;;;;15.70;8.98;;;;;;;-0.15;85.27;96527.30;1757393;82;21155;-83
2021/01/19 11:00:32;;;;;;;14.98;9.40;;;;;;;-0.18;85.18;96527.72;1757393;82;21148;-83
2021/01/19 11:03:00;;;;;;;17.60;10.48;;;;;;;-0.25;84.85;96512.66;1757436;81;21167;-83
2021/01/19 11:05:28;;;;;;;14.47;9.25;;;;;;;-0.22;85.00;96525.26;1757157;82;21476;-83
2021/01/19 11:07:57;;;;;;;16.65;10.40;;;;;;;-0.20;84.95;96511.51;1757256;81;21527;-83
2021/01/19 11:10:27;;;;;;;13.38;9.30;;;;;;;-0.20;84.94;96514.11;1757053;81;21528;-83
2021/01/19 11:12:56;;;;;;;13.85;7.67;;;;;;;-0.14;84.92;96504.16;1756754;81;21096;-83
2021/01/19 11:15:24;;;;;;;17.35;7.25;;;;;;;-0.07;84.78;96504.89;1751536;81;21096;-83
2021/01/19 11:17:54;;;;;;;15.05;9.40;;;;;;;-0.04;84.59;96478.41;1751371;81;21293;-83
2021/01/19 11:20:24;;;;;;;14.53;6.55;;;;;;;0.04;84.62;96488.27;1751768;81;21159;-83
2021/01/19 11:22:51;;;;;;;10.98;6.40;;;;;;;0.03;84.30;96487.98;1751648;82;21143;-83
2021/01/19 11:25:18;;;;;;;18.92;9.70;;;;;;;-0.07;84.08;96497.58;1751520;82;21159;-83
2021/01/19 11:27:50;;;;;;;12.70;7.70;;;;;;;-0.09;84.43;96494.39;1751474;81;21160;-83
2021/01/19 11:30:18;;;;;;;13.83;8.45;;;;;;;-0.09;84.43;96494.39;1751619;81;21173;-83
2021/01/19 11:32:45;;;;;;;13.78;8.33;;;;;;;-0.11;84.11;96483.39;1751662;82;21286;-83
2021/01/19 11:35:13;;;;;;;13.28;8.60;;;;;;;-0.11;84.11;96483.39;1751652;81;21285;-83
2021/01/19 11:37:40;;;;;;;14.15;8.35;;;;;;;-0.08;83.99;96485.06;1751900;82;21175;-83
2021/01/19 11:40:09;;;;;;;10.28;7.28;;;;;;;-0.21;84.06;96463.53;1751570;81;21661;-83
2021/01/19 11:42:36;;;;;;;10.43;7.47;;;;;;;-0.20;84.23;96482.86;1751921;82;21282;-83
2021/01/19 11:45:06;;;;;;;18.50;9.38;;;;;;;-0.16;84.42;96472.80;1751633;82;21301;-83
2021/01/19 11:47:33;;;;;;;9.45;6.08;;;;;;;-0.10;84.35;96466.24;1751724;82;21159;-83